createdAt,value
2022-12-19T00:00:28.733Z,4.90
2022-12-19T00:02:56.506Z,4.90
2022-12-19T00:05:24.813Z,4.60
2022-12-19T00:07:53.959Z,4.32
2022-12-19T00:10:21.795Z,5.07
2022-12-19T00:12:49.588Z,5.10
2022-12-19T00:15:17.898Z,4.38
2022-12-19T00:17:45.645Z,5.35
2022-12-19T00:20:13.534Z,5.00
2022-12-19T00:22:44.648Z,5.00
2022-12-19T00:25:12.394Z,5.13
2022-12-19T00:27:40.802Z,5.45
2022-12-19T00:30:09.320Z,5.07
2022-12-19T00:32:38.307Z,5.05
2022-12-19T00:35:07.402Z,5.43
2022-12-19T00:37:35.327Z,5.13
2022-12-19T00:40:07.751Z,5.10
2022-12-19T00:42:35.598Z,5.22
2022-12-19T00:45:03.764Z,5.10
2022-12-19T00:47:31.596Z,5.28
2022-12-19T00:50:00.693Z,5.05
2022-12-19T00:52:28.394Z,5.57
2022-12-19T00:54:58.223Z,4.60
2022-12-19T00:57:26.188Z,5.53
2022-12-19T00:59:54.469Z,5.45
2022-12-19T01:02:22.694Z,5.18
2022-12-19T01:04:51.042Z,5.70
2022-12-19T01:07:18.733Z,5.60
2022-12-19T01:09:46.443Z,5.65
2022-12-19T01:12:34.028Z,5.50
2022-12-19T01:15:05.288Z,5.68
2022-12-19T01:17:43.729Z,4.95
2022-12-19T01:20:28.937Z,5.32
2022-12-19T01:22:59.949Z,4.85
2022-12-19T01:25:28.603Z,4.80
2022-12-19T01:27:57.238Z,4.95
2022-12-19T01:30:25.549Z,4.95
2022-12-19T01:32:53.835Z,4.47
2022-12-19T01:35:22.332Z,5.32
2022-12-19T01:37:52.142Z,4.80
2022-12-19T01:40:24.485Z,4.75
2022-12-19T01:42:52.295Z,4.75
2022-12-19T01:45:31.992Z,4.80
2022-12-19T01:48:12.861Z,4.72
2022-12-19T01:50:56.030Z,4.85
2022-12-19T01:53:48.337Z,4.90
2022-12-19T01:56:24.213Z,5.00
2022-12-19T01:59:06.157Z,4.63
2022-12-19T02:01:50.949Z,4.95
2022-12-19T02:04:29.402Z,4.97
2022-12-19T02:07:15.192Z,5.18
2022-12-19T02:09:46.941Z,4.88
2022-12-19T02:12:15.178Z,5.32
2022-12-19T02:14:43.641Z,5.40
2022-12-19T02:17:17.018Z,5.35
2022-12-19T02:19:54.771Z,5.28
2022-12-19T02:22:44.322Z,5.07
2022-12-19T02:25:21.664Z,4.63
2022-12-19T02:28:16.620Z,5.05
2022-12-19T02:31:17.717Z,4.80
2022-12-19T02:33:56.654Z,4.35
2022-12-19T02:36:50.563Z,4.68
2022-12-19T02:39:30.524Z,4.57
2022-12-19T02:42:05.907Z,4.47
2022-12-19T02:44:39.937Z,4.78
2022-12-19T02:47:09.031Z,4.72
2022-12-19T02:49:39.028Z,4.22
2022-12-19T02:52:12.604Z,4.50
2022-12-19T02:54:42.329Z,5.13
2022-12-19T02:57:39.775Z,4.70
2022-12-19T03:00:16.304Z,4.45
2022-12-19T03:03:00.848Z,4.43
2022-12-19T03:05:35.770Z,3.95
2022-12-19T03:08:30.915Z,3.88
2022-12-19T03:11:10.509Z,4.22
2022-12-19T03:13:46.377Z,4.47
2022-12-19T03:16:15.059Z,4.22
2022-12-19T03:18:44.300Z,4.15
2022-12-19T03:21:21.504Z,4.72
2022-12-19T03:26:24.999Z,3.90
2022-12-19T03:29:20.120Z,4.47
2022-12-19T03:31:48.164Z,4.55
2022-12-19T03:34:23.983Z,4.18
2022-12-19T03:36:57.424Z,3.97
2022-12-19T03:39:29.401Z,4.25
2022-12-19T03:42:18.212Z,3.80
2022-12-19T03:44:48.530Z,3.72
2022-12-19T03:47:24.408Z,3.47
2022-12-19T03:49:53.052Z,3.40
2022-12-19T03:52:29.731Z,3.55
2022-12-19T03:55:08.088Z,3.40
2022-12-19T03:57:44.261Z,3.50
2022-12-19T04:00:16.263Z,3.08
2022-12-19T04:02:48.082Z,3.38
2022-12-19T04:05:21.093Z,3.20
2022-12-19T04:07:51.701Z,3.17
2022-12-19T04:10:24.937Z,3.58
2022-12-19T04:13:27.699Z,3.65
2022-12-19T04:15:58.373Z,3.33
2022-12-19T04:18:26.564Z,3.53
2022-12-19T04:21:01.705Z,3.45
2022-12-19T04:23:39.583Z,3.63
2022-12-19T04:26:09.758Z,3.50
2022-12-19T04:28:58.872Z,5.13
2022-12-19T04:31:26.969Z,7.85
2022-12-19T04:33:55.090Z,6.75
2022-12-19T04:36:23.092Z,5.03
2022-12-19T04:38:50.748Z,4.68
2022-12-19T04:41:18.545Z,3.97
2022-12-19T04:43:46.342Z,4.25
2022-12-19T04:46:14.284Z,4.30
2022-12-19T04:48:42.090Z,3.60
2022-12-19T04:51:10.026Z,3.50
2022-12-19T04:53:37.851Z,4.03
2022-12-19T04:56:07.176Z,3.65
2022-12-19T04:58:34.935Z,3.63
2022-12-19T05:01:04.830Z,3.17
2022-12-19T05:03:33.423Z,3.08
2022-12-19T05:06:12.526Z,3.15
2022-12-19T05:08:43.148Z,3.72
2022-12-19T05:11:19.203Z,3.63
2022-12-19T05:13:47.849Z,3.13
2022-12-19T05:16:16.166Z,3.70
2022-12-19T05:18:44.453Z,3.30
2022-12-19T05:21:12.944Z,3.90
2022-12-19T05:23:40.781Z,3.60
2022-12-19T05:26:08.646Z,3.60
2022-12-19T05:28:36.699Z,3.00
2022-12-19T05:31:11.891Z,3.40
2022-12-19T05:33:41.975Z,3.33
2022-12-19T05:36:15.877Z,4.18
2022-12-19T05:38:43.837Z,3.83
2022-12-19T05:41:16.230Z,3.60
2022-12-19T05:43:45.970Z,3.80
2022-12-19T05:46:13.816Z,4.95
2022-12-19T05:48:41.852Z,5.63
2022-12-19T05:51:09.856Z,5.30
2022-12-19T05:53:39.220Z,5.20
2022-12-19T05:56:08.783Z,4.97
2022-12-19T05:58:41.077Z,4.93
2022-12-19T06:01:33.803Z,4.80
2022-12-19T06:04:01.674Z,4.95
2022-12-19T06:06:29.532Z,5.40
2022-12-19T06:08:58.600Z,5.35
2022-12-19T06:11:27.842Z,5.32
2022-12-19T06:13:55.616Z,5.10
2022-12-19T06:16:24.316Z,4.80
2022-12-19T06:18:54.534Z,5.15
2022-12-19T06:21:23.990Z,4.95
2022-12-19T06:23:51.932Z,5.00
2022-12-19T06:26:21.218Z,5.35
2022-12-19T06:28:50.562Z,5.63
2022-12-19T06:31:19.442Z,6.70
2022-12-19T06:33:47.106Z,5.18
2022-12-19T06:36:17.190Z,5.20
2022-12-19T06:38:45.143Z,5.20
2022-12-19T06:41:31.879Z,5.28
2022-12-19T06:44:00.959Z,5.85
2022-12-19T06:46:29.221Z,4.68
2022-12-19T06:48:57.287Z,5.25
2022-12-19T06:51:25.026Z,5.97
2022-12-19T06:53:53.856Z,5.63
2022-12-19T06:56:21.743Z,5.13
2022-12-19T06:58:50.497Z,5.15
2022-12-19T07:01:35.795Z,5.20
2022-12-19T07:04:04.116Z,4.68
2022-12-19T07:06:32.043Z,4.90
2022-12-19T07:09:00.317Z,5.03
2022-12-19T07:11:28.067Z,5.20
2022-12-19T07:13:55.730Z,5.93
2022-12-19T07:16:25.949Z,5.93
2022-12-19T07:18:54.139Z,5.53
2022-12-19T07:21:22.726Z,5.97
2022-12-19T07:23:50.868Z,5.88
2022-12-19T07:26:18.784Z,6.13
2022-12-19T07:28:46.594Z,5.78
2022-12-19T07:31:14.702Z,5.63
2022-12-19T07:33:43.731Z,6.75
2022-12-19T07:36:11.603Z,6.28
2022-12-19T07:38:39.259Z,6.05
2022-12-19T07:41:07.085Z,6.68
2022-12-19T07:43:34.947Z,5.90
2022-12-19T07:46:03.162Z,6.00
2022-12-19T07:48:31.559Z,5.97
2022-12-19T07:51:00.312Z,6.35
2022-12-19T07:53:31.521Z,6.20
2022-12-19T07:55:59.459Z,6.43
2022-12-19T07:58:27.086Z,6.70
2022-12-19T08:01:01.564Z,7.03
2022-12-19T08:03:32.949Z,5.68
2022-12-19T08:06:06.403Z,5.72
2022-12-19T08:08:35.513Z,7.00
2022-12-19T08:11:14.949Z,6.88
2022-12-19T08:13:46.396Z,7.15
2022-12-19T08:16:15.256Z,6.70
2022-12-19T08:18:43.177Z,6.13
2022-12-19T08:21:11.738Z,5.68
2022-12-19T08:23:40.121Z,6.80
2022-12-19T08:26:14.576Z,7.72
2022-12-19T08:28:43.767Z,7.07
2022-12-19T08:31:17.465Z,6.82
2022-12-19T08:33:46.470Z,6.72
2022-12-19T08:36:16.559Z,7.40
2022-12-19T08:38:44.571Z,7.93
2022-12-19T08:41:12.768Z,6.90
2022-12-19T08:43:41.151Z,7.03
2022-12-19T08:46:09.538Z,7.00
2022-12-19T08:48:37.392Z,6.40
2022-12-19T08:51:08.065Z,6.97
2022-12-19T08:53:38.523Z,7.80
2022-12-19T08:56:11.673Z,7.07
2022-12-19T08:58:40.091Z,7.20
2022-12-19T09:01:11.520Z,7.07
2022-12-19T09:03:49.634Z,7.57
2022-12-19T09:06:27.903Z,8.27
2022-12-19T09:09:00.467Z,7.45
2022-12-19T09:11:29.097Z,7.75
2022-12-19T09:13:58.148Z,8.50
2022-12-19T09:16:28.240Z,8.73
2022-12-19T09:18:58.791Z,8.48
2022-12-19T09:21:31.687Z,7.90
2022-12-19T09:24:07.407Z,6.80
2022-12-19T09:26:38.948Z,16.02
2022-12-19T09:29:12.628Z,12.55
2022-12-19T09:31:55.533Z,11.30
2022-12-19T09:34:37.197Z,11.68
2022-12-19T09:37:16.375Z,12.48
2022-12-19T09:39:46.966Z,9.68
2022-12-19T09:42:41.128Z,8.48
2022-12-19T09:45:32.174Z,9.18
2022-12-19T09:48:02.141Z,11.18
2022-12-19T09:50:33.399Z,13.68
2022-12-19T09:53:11.770Z,13.40
2022-12-19T09:55:42.009Z,12.48
2022-12-19T09:58:19.861Z,11.70
2022-12-19T10:01:05.119Z,10.77
2022-12-19T10:03:40.339Z,11.90
2022-12-19T10:07:11.419Z,12.68
2022-12-19T10:10:52.904Z,13.27
2022-12-19T10:12:43.779Z,13.10
2022-12-19T10:15:26.151Z,14.02
2022-12-19T10:18:12.960Z,13.40
2022-12-19T10:20:45.868Z,13.05
2022-12-19T10:23:26.219Z,15.13
2022-12-19T10:26:07.821Z,12.65
2022-12-19T10:29:08.505Z,14.20
2022-12-19T10:31:39.122Z,12.35
2022-12-19T10:34:33.287Z,11.40
2022-12-19T10:37:35.086Z,9.82
2022-12-19T10:40:27.281Z,8.07
2022-12-19T10:43:32.888Z,6.68
2022-12-19T10:46:12.285Z,5.45
2022-12-19T10:48:41.815Z,4.35
2022-12-19T10:51:25.325Z,5.22
2022-12-19T10:53:56.722Z,6.45
2022-12-19T10:56:33.158Z,6.57
2022-12-19T10:59:16.336Z,7.50
2022-12-19T11:01:45.030Z,7.55
2022-12-19T11:04:33.848Z,7.80
2022-12-19T11:07:05.330Z,6.43
2022-12-19T11:09:46.076Z,5.70
2022-12-19T11:16:22.137Z,5.60
2022-12-19T11:20:45.545Z,5.70
2022-12-19T11:29:19.608Z,4.50
2022-12-19T11:29:24.898Z,4.68
2022-12-19T11:30:45.727Z,4.78
2022-12-19T11:32:43.599Z,4.00
2022-12-19T11:35:36.584Z,4.40
2022-12-19T11:38:08.521Z,4.10
2022-12-19T11:40:49.850Z,3.70
2022-12-19T11:43:55.594Z,5.05
2022-12-19T11:46:27.255Z,4.13
2022-12-19T11:49:31.445Z,3.97
2022-12-19T11:55:28.370Z,4.43
2022-12-19T11:57:56.208Z,4.93
2022-12-19T12:00:24.971Z,5.53
2022-12-19T12:03:20.727Z,5.40
2022-12-19T12:05:50.152Z,4.85
2022-12-19T12:11:35.023Z,4.68
2022-12-19T12:18:22.127Z,5.93
2022-12-19T12:20:21.893Z,7.30
2022-12-19T12:31:21.495Z,6.82
2022-12-19T12:31:40.036Z,6.35
2022-12-19T12:31:46.191Z,9.40
2022-12-19T12:31:56.046Z,8.13
2022-12-19T12:32:06.316Z,10.68
2022-12-19T12:35:31.530Z,11.18
2022-12-19T12:38:13.772Z,10.18
2022-12-19T12:40:23.867Z,9.02
2022-12-19T12:43:07.201Z,8.80
2022-12-19T12:45:38.237Z,8.88
2022-12-19T12:48:44.448Z,7.85
2022-12-19T12:51:13.298Z,9.40
2022-12-19T12:53:47.031Z,9.13
2022-12-19T12:56:17.860Z,9.05
2022-12-19T12:59:06.091Z,7.43
2022-12-19T13:01:40.534Z,8.23
2022-12-19T13:04:11.549Z,8.43
2022-12-19T13:06:42.112Z,7.82
2022-12-19T13:09:09.793Z,7.43
2022-12-19T13:12:06.200Z,8.05
2022-12-19T13:14:39.843Z,7.35
2022-12-19T13:17:19.728Z,6.80
2022-12-19T13:20:17.903Z,6.30
2022-12-19T13:23:03.882Z,6.32
2022-12-19T13:25:34.905Z,5.78
2022-12-19T13:28:02.773Z,5.68
2022-12-19T13:30:46.226Z,5.95
2022-12-19T13:33:20.269Z,5.65
2022-12-19T13:39:23.021Z,6.35
2022-12-19T13:42:01.287Z,6.90
2022-12-19T13:44:42.364Z,6.70
2022-12-19T13:47:16.607Z,6.93
2022-12-19T13:49:48.457Z,8.02
2022-12-19T13:52:18.196Z,7.10
2022-12-19T13:54:52.100Z,7.53
2022-12-19T13:57:28.782Z,8.60
2022-12-19T14:00:07.340Z,7.22
2022-12-19T14:02:46.933Z,6.53
2022-12-19T14:08:25.726Z,6.30
2022-12-19T14:11:40.147Z,6.95
2022-12-19T14:14:19.093Z,6.00
2022-12-19T14:16:50.670Z,5.82
2022-12-19T14:19:19.858Z,5.00
2022-12-19T14:22:09.946Z,4.68
2022-12-19T14:28:21.385Z,4.30
2022-12-19T14:30:30.926Z,4.18
2022-12-19T14:33:45.355Z,3.90
2022-12-19T14:36:10.648Z,4.22
2022-12-19T14:39:27.356Z,5.07
2022-12-19T14:41:47.954Z,3.35
2022-12-19T14:53:52.111Z,3.08
2022-12-19T14:53:52.111Z,2.97
2022-12-19T14:54:05.507Z,2.63
2022-12-19T14:54:23.893Z,2.10
2022-12-19T14:56:16.162Z,2.40
2022-12-19T14:58:55.710Z,2.38
2022-12-19T15:01:27.197Z,2.15
2022-12-19T15:04:53.319Z,2.33
2022-12-19T15:07:07.542Z,2.00
2022-12-19T15:11:06.714Z,2.20
2022-12-19T15:14:51.841Z,2.22
2022-12-19T15:16:29.643Z,2.23
2022-12-19T15:18:59.184Z,2.42
2022-12-19T15:21:28.175Z,2.05
2022-12-19T15:23:55.905Z,2.58
2022-12-19T15:26:33.696Z,2.75
2022-12-19T15:29:02.662Z,2.67
2022-12-19T15:31:39.396Z,2.50
2022-12-19T15:34:40.164Z,2.60
2022-12-19T15:37:11.435Z,2.92
2022-12-19T15:39:40.883Z,3.40
2022-12-19T15:42:24.999Z,4.07
2022-12-19T15:44:55.943Z,4.18
2022-12-19T15:47:35.419Z,4.40
2022-12-19T15:50:16.833Z,4.43
2022-12-19T15:52:45.031Z,4.40
2022-12-19T15:55:19.158Z,4.30
2022-12-19T15:57:49.796Z,4.43
2022-12-19T16:00:23.849Z,3.88
2022-12-19T16:03:23.238Z,3.58
2022-12-19T16:05:42.482Z,3.80
2022-12-19T16:08:20.079Z,3.72
2022-12-19T16:11:01.046Z,4.03
2022-12-19T16:13:34.720Z,4.88
2022-12-19T16:16:09.266Z,4.25
2022-12-19T16:18:44.731Z,3.92
2022-12-19T16:21:26.059Z,4.20
2022-12-19T16:23:59.253Z,4.00
2022-12-19T16:26:35.981Z,3.72
2022-12-19T16:29:04.460Z,4.30
2022-12-19T16:31:33.013Z,3.85
2022-12-19T16:34:02.656Z,4.18
2022-12-19T16:36:30.487Z,4.07
2022-12-19T16:38:58.201Z,4.68
2022-12-19T16:41:26.212Z,4.97
2022-12-19T16:43:54.070Z,4.90
2022-12-19T16:46:26.333Z,4.40
2022-12-19T16:48:54.195Z,4.93
2022-12-19T16:51:24.825Z,4.30
2022-12-19T16:53:55.057Z,4.07
2022-12-19T16:56:29.973Z,4.70
2022-12-19T16:59:01.362Z,4.72
2022-12-19T17:01:30.239Z,5.45
2022-12-19T17:03:58.097Z,5.28
2022-12-19T17:06:26.843Z,5.53
2022-12-19T17:08:54.764Z,5.03
2022-12-19T17:11:26.241Z,5.22
2022-12-19T17:14:01.705Z,4.85
2022-12-19T17:16:31.295Z,6.07
2022-12-19T17:18:59.749Z,5.93
2022-12-19T17:21:27.573Z,5.97
2022-12-19T17:23:55.496Z,6.28
2022-12-19T17:26:23.258Z,6.00
2022-12-19T17:28:51.054Z,5.95
2022-12-19T17:31:30.301Z,5.88
2022-12-19T17:33:58.674Z,5.82
2022-12-19T17:36:34.662Z,5.63
2022-12-19T17:39:03.175Z,5.97
2022-12-19T17:41:31.316Z,6.10
2022-12-19T17:43:59.149Z,5.72
2022-12-19T17:46:27.136Z,7.03
2022-12-19T17:48:55.261Z,5.82
2022-12-19T17:51:24.630Z,6.18
2022-12-19T17:53:52.435Z,6.80
2022-12-19T17:56:21.039Z,5.97
2022-12-19T17:58:49.589Z,6.10
2022-12-19T18:01:23.251Z,6.60
2022-12-19T18:03:54.345Z,6.25
2022-12-19T18:06:22.684Z,6.43
2022-12-19T18:08:50.564Z,6.05
2022-12-19T18:11:22.282Z,6.13
2022-12-19T18:13:52.208Z,6.20
2022-12-19T18:16:23.711Z,6.05
2022-12-19T18:18:51.545Z,6.20
2022-12-19T18:21:23.385Z,6.00
2022-12-19T18:23:51.514Z,7.00
2022-12-19T18:26:19.354Z,7.18
2022-12-19T18:28:47.052Z,7.72
2022-12-19T18:31:32.993Z,7.20
2022-12-19T18:34:07.409Z,7.47
2022-12-19T18:36:43.456Z,6.82
2022-12-19T18:39:29.290Z,6.57
2022-12-19T18:41:57.138Z,6.32
2022-12-19T18:44:25.275Z,6.90
2022-12-19T18:46:53.672Z,5.75
2022-12-19T18:49:23.516Z,6.07
2022-12-19T18:51:51.386Z,5.07
2022-12-19T18:54:22.006Z,5.90
2022-12-19T18:56:50.159Z,7.60
2022-12-19T18:59:17.954Z,7.45
2022-12-19T19:01:47.403Z,6.80
2022-12-19T19:04:18.272Z,6.57
2022-12-19T19:06:51.458Z,7.35
2022-12-19T19:09:20.665Z,6.88
2022-12-19T19:12:06.267Z,7.38
2022-12-19T19:14:34.133Z,7.53
2022-12-19T19:17:03.473Z,8.45
2022-12-19T19:19:31.725Z,8.38
2022-12-19T19:21:59.496Z,8.73
2022-12-19T19:24:27.272Z,10.93
2022-12-19T19:26:55.144Z,13.52
2022-12-19T19:29:22.996Z,13.88
2022-12-19T19:31:51.902Z,13.27
2022-12-19T19:34:25.699Z,10.32
2022-12-19T19:36:57.408Z,9.57
2022-12-19T19:39:25.324Z,7.68
2022-12-19T19:41:56.490Z,7.20
2022-12-19T19:44:24.275Z,7.47
2022-12-19T19:46:52.534Z,6.68
2022-12-19T19:49:21.217Z,7.45
2022-12-19T19:51:49.715Z,7.40
2022-12-19T19:54:17.839Z,8.32
2022-12-19T19:56:45.473Z,7.70
2022-12-19T19:59:13.716Z,8.40
2022-12-19T20:01:42.787Z,8.45
2022-12-19T20:04:10.793Z,10.68
2022-12-19T20:06:38.729Z,9.52
2022-12-19T20:09:06.703Z,9.32
2022-12-19T20:11:34.820Z,10.00
2022-12-19T20:14:02.615Z,10.02
2022-12-19T20:16:30.798Z,10.25
2022-12-19T20:18:58.705Z,11.88
2022-12-19T20:21:26.732Z,11.73
2022-12-19T20:23:54.681Z,10.45
2022-12-19T20:26:22.693Z,9.38
2022-12-19T20:28:51.474Z,8.75
2022-12-19T20:31:21.247Z,9.18
2022-12-19T20:33:49.894Z,8.98
2022-12-19T20:36:18.606Z,8.73
2022-12-19T20:38:47.306Z,8.30
2022-12-19T20:41:17.477Z,7.50
2022-12-19T20:43:45.569Z,8.55
2022-12-19T20:46:16.842Z,6.90
2022-12-19T20:48:45.460Z,7.22
2022-12-19T20:51:18.022Z,9.48
2022-12-19T20:53:46.871Z,32.42
2022-12-19T20:56:17.577Z,32.90
2022-12-19T20:58:46.011Z,28.40
2022-12-19T21:01:18.149Z,20.05
2022-12-19T21:03:46.871Z,15.15
2022-12-19T21:06:19.272Z,13.63
2022-12-19T21:08:47.615Z,11.98
2022-12-19T21:11:15.999Z,11.07
2022-12-19T21:13:44.220Z,10.20
2022-12-19T21:16:15.697Z,8.55
2022-12-19T21:18:46.157Z,8.57
2022-12-19T21:21:19.000Z,7.85
2022-12-19T21:23:47.347Z,7.43
2022-12-19T21:26:15.528Z,7.30
2022-12-19T21:28:43.652Z,6.82
2022-12-19T21:31:21.245Z,6.65
2022-12-19T21:33:51.363Z,6.93
2022-12-19T21:36:21.895Z,6.65
2022-12-19T21:38:52.068Z,6.60
2022-12-19T21:41:20.395Z,6.95
2022-12-19T21:43:52.550Z,6.60
2022-12-19T21:46:23.901Z,6.55
2022-12-19T21:48:53.589Z,5.70
2022-12-19T21:51:24.031Z,6.00
2022-12-19T21:53:57.142Z,5.95
2022-12-19T21:56:36.404Z,7.72
2022-12-19T21:59:15.612Z,12.88
2022-12-19T22:01:45.327Z,13.15
2022-12-19T22:04:24.496Z,10.70
2022-12-19T22:06:52.381Z,9.55
2022-12-19T22:09:23.269Z,9.18
2022-12-19T22:11:51.425Z,8.50
2022-12-19T22:14:19.389Z,7.10
2022-12-19T22:16:47.261Z,6.72
2022-12-19T22:19:18.587Z,6.97
2022-12-19T22:21:47.534Z,6.32
2022-12-19T22:24:17.192Z,6.43
2022-12-19T22:26:45.277Z,5.22
2022-12-19T22:29:16.291Z,5.10
2022-12-19T22:31:45.402Z,6.68
2022-12-19T22:34:18.848Z,7.82
2022-12-19T22:36:47.746Z,8.13
2022-12-19T22:39:18.766Z,8.35
2022-12-19T22:41:46.796Z,9.35
2022-12-19T22:44:23.418Z,7.60
2022-12-19T22:46:52.712Z,6.88
2022-12-19T22:49:20.691Z,6.68
2022-12-19T22:51:48.568Z,6.88
2022-12-19T22:54:16.353Z,8.25
2022-12-19T22:56:44.303Z,9.30
2022-12-19T22:59:12.821Z,11.70
2022-12-19T23:01:44.580Z,10.90
2022-12-19T23:04:15.264Z,10.73
2022-12-19T23:06:44.255Z,10.07
2022-12-19T23:09:16.319Z,10.02
2022-12-19T23:11:47.452Z,9.43
2022-12-19T23:14:17.169Z,9.07
2022-12-19T23:16:45.537Z,9.43
2022-12-19T23:19:15.406Z,8.80
2022-12-19T23:21:43.319Z,9.27
2022-12-19T23:24:12.615Z,8.82
2022-12-19T23:26:41.400Z,7.85
2022-12-19T23:29:12.227Z,7.93
2022-12-19T23:31:42.655Z,6.93
2022-12-19T23:34:11.039Z,8.10
2022-12-19T23:37:09.730Z,7.65
2022-12-19T23:39:26.657Z,7.22
2022-12-19T23:41:54.329Z,8.10
2022-12-19T23:44:22.120Z,8.48
2022-12-19T23:46:49.889Z,8.00
2022-12-19T23:49:17.631Z,6.80
2022-12-19T23:51:45.539Z,7.70
2022-12-19T23:54:13.414Z,7.65
2022-12-19T23:56:41.214Z,8.30
2022-12-19T23:59:08.947Z,7.35
